Terminal Aerodrome Forecast
Issued by NWS Tuscon, AZ

Home | Current Version | Previous Version | Text Only | Print | Product List | Glossary On
Versions: 1 2 3 4 5 6 7 8 9 10 11 12
199
FTUS45 KTWC 210520
TAFDUG
TAF
KDUG 210520Z 2106/2206 23010KT P6SM SCT250
     FM211300 31007KT P6SM FEW250
     FM211900 31011G18KT P6SM FEW250
     FM220100 35010KT P6SM FEW250=

USA.gov is the U.S. government's official web portal to all federal, state and local government web resources and services.